Time;durP1;ratioP1;P1;durP2;ratioP2;P2;SDS_P1;SDS_P2;PMS_P1;PMS_P2;Temp;Humidity;BMP_temperature;BMP_pressure;BME280_temperature;BME280_humidity;BME280_pressure;Samples;Min_cycle;Max_cycle;Signal;HPM_P1;HPM_P2
2022/10/10 00:01:07;;;;;;;28.90;14.85;;;17.30;99.90;;;;;;5067225;28;20036;-80
2022/10/10 00:03:32;;;;;;;33.67;15.07;;;17.30;99.90;;;;;;5067209;28;20028;-80
2022/10/10 00:05:58;;;;;;;31.90;14.40;;;17.30;99.90;;;;;;5065995;28;20221;-80
2022/10/10 00:08:24;;;;;;;35.03;16.13;;;17.30;99.90;;;;;;5064795;28;20032;-80
2022/10/10 00:10:49;;;;;;;30.00;15.32;;;17.30;99.90;;;;;;5068506;28;20170;-80
2022/10/10 00:13:15;;;;;;;37.42;21.02;;;17.30;99.90;;;;;;5071890;28;20074;-80
2022/10/10 00:15:41;;;;;;;39.45;23.15;;;17.20;99.90;;;;;;5071930;28;20043;-80
2022/10/10 00:18:06;;;;;;;39.67;24.40;;;17.30;99.90;;;;;;5070476;28;20020;-80
2022/10/10 00:20:32;;;;;;;45.78;27.13;;;17.30;99.90;;;;;;5066965;28;20100;-80
2022/10/10 00:22:58;;;;;;;44.00;27.38;;;17.30;99.90;;;;;;5082928;28;20028;-80
2022/10/10 00:25:23;;;;;;;42.03;27.83;;;17.30;99.90;;;;;;5072613;28;20044;-80
2022/10/10 00:27:49;;;;;;;38.58;25.48;;;17.30;99.90;;;;;;5068895;28;20228;-80
2022/10/10 00:30:15;;;;;;;36.38;23.40;;;17.30;99.90;;;;;;5071985;28;20088;-80
2022/10/10 00:32:40;;;;;;;46.17;22.40;;;17.30;99.90;;;;;;5066834;28;20090;-80
2022/10/10 00:35:06;;;;;;;38.33;20.52;;;17.20;99.90;;;;;;5068899;28;20040;-81
2022/10/10 00:37:32;;;;;;;30.40;19.38;;;17.20;99.90;;;;;;5064804;28;20019;-81
2022/10/10 00:39:58;;;;;;;30.15;18.23;;;17.20;99.90;;;;;;5066596;28;20029;-80
2022/10/10 00:42:23;;;;;;;35.75;16.13;;;17.20;99.90;;;;;;5064595;28;20070;-81
2022/10/10 00:45:28;;;;;;;33.50;16.08;;;17.10;99.90;;;;;;5064315;28;20044;-81
2022/10/10 00:48:15;;;;;;;32.75;15.60;;;17.10;99.90;;;;;;5061883;28;20040;-80
2022/10/10 00:50:50;;;;;;;35.15;14.90;;;17.10;99.90;;;;;;5069499;28;20400;-81
2022/10/10 00:53:20;;;;;;;34.45;14.43;;;17.10;99.90;;;;;;5068063;28;20064;-82
2022/10/10 00:55:46;;;;;;;27.85;14.57;;;17.10;99.90;;;;;;5077014;28;20047;-81
2022/10/10 00:58:13;;;;;;;30.25;14.07;;;17.10;99.90;;;;;;5071836;28;20197;-80
2022/10/10 01:00:39;;;;;;;26.63;12.75;;;17.00;99.90;;;;;;5075522;28;20265;-81
2022/10/10 01:03:04;;;;;;;30.08;12.85;;;17.00;99.90;;;;;;5069428;28;20083;-80
2022/10/10 01:05:31;;;;;;;37.05;14.07;;;17.10;99.90;;;;;;5065950;28;20025;-80
2022/10/10 01:07:58;;;;;;;34.17;14.15;;;17.10;99.90;;;;;;5062284;28;20025;-80
2022/10/10 01:10:24;;;;;;;33.45;14.70;;;17.10;99.90;;;;;;5064159;28;20016;-80
2022/10/10 01:13:26;;;;;;;37.33;15.13;;;17.20;99.90;;;;;;5073623;28;20060;-80
2022/10/10 01:16:13;;;;;;;35.40;14.60;;;17.20;99.90;;;;;;5077994;28;20096;-80
2022/10/10 01:18:47;;;;;;;38.47;16.25;;;17.20;99.90;;;;;;5067933;28;20047;-80
2022/10/10 01:21:25;;;;;;;44.28;14.43;;;17.10;99.90;;;;;;5066965;28;20231;-80
2022/10/10 01:24:02;;;;;;;36.80;14.50;;;17.20;99.90;;;;;;5078194;28;20029;-80
2022/10/10 01:26:52;;;;;;;28.58;13.85;;;17.20;99.90;;;;;;5071623;28;20146;-80
2022/10/10 01:29:34;;;;;;;37.13;14.60;;;17.20;99.90;;;;;;5066739;28;20205;-80
2022/10/10 01:32:17;;;;;;;36.63;15.02;;;17.20;99.90;;;;;;5074480;28;20039;-80
2022/10/10 01:35:00;;;;;;;34.92;13.70;;;17.20;99.90;;;;;;5066781;28;20040;-81
2022/10/10 01:37:51;;;;;;;31.52;14.38;;;17.20;99.90;;;;;;5064943;28;20017;-80
2022/10/10 01:40:24;;;;;;;38.22;14.38;;;17.20;99.90;;;;;;5065541;28;20055;-80
2022/10/10 01:42:54;;;;;;;39.45;12.57;;;17.20;99.90;;;;;;5062818;28;20028;-80
2022/10/10 01:45:20;;;;;;;35.03;12.82;;;17.20;99.90;;;;;;5066720;28;20024;-80
2022/10/10 01:47:47;;;;;;;41.58;12.63;;;17.20;99.90;;;;;;5069750;28;20024;-80
2022/10/10 01:50:18;;;;;;;32.40;11.07;;;17.20;99.90;;;;;;5070701;28;20025;-81
2022/10/10 01:53:34;;;;;;;36.33;12.80;;;17.30;99.90;;;;;;5068791;28;20024;-80
2022/10/10 01:56:21;;;;;;;42.05;12.00;;;17.20;99.90;;;;;;5052229;28;20214;-81
2022/10/10 01:59:08;;;;;;;32.08;9.90;;;17.30;99.90;;;;;;5068487;28;20095;-81
2022/10/10 02:01:57;;;;;;;36.83;11.35;;;17.20;99.90;;;;;;5064496;28;20088;-81
2022/10/10 02:04:40;;;;;;;31.25;10.32;;;17.30;99.90;;;;;;5075289;28;20037;-81
2022/10/10 02:07:13;;;;;;;30.42;10.75;;;17.30;99.90;;;;;;5063151;28;20051;-80
2022/10/10 02:09:42;;;;;;;29.57;9.17;;;17.30;99.90;;;;;;5062378;28;20024;-81
2022/10/10 02:12:11;;;;;;;33.40;10.45;;;17.30;99.90;;;;;;5068768;28;20392;-81
2022/10/10 02:14:41;;;;;;;40.67;11.25;;;17.30;99.90;;;;;;5071381;28;20028;-80
2022/10/10 02:17:10;;;;;;;27.52;10.68;;;17.40;99.90;;;;;;5066787;28;20059;-80
2022/10/10 02:19:40;;;;;;;38.00;11.32;;;17.30;99.90;;;;;;5069619;28;20023;-80
2022/10/10 02:22:06;;;;;;;28.83;10.80;;;17.30;99.90;;;;;;5074959;28;20032;-80
2022/10/10 02:24:32;;;;;;;24.95;9.50;;;17.30;99.90;;;;;;5073297;28;20172;-80
2022/10/10 02:27:08;;;;;;;42.05;10.70;;;17.30;99.90;;;;;;5070471;28;20148;-80
2022/10/10 02:29:37;;;;;;;37.05;11.55;;;17.30;99.90;;;;;;5067007;28;20017;-80
2022/10/10 02:32:14;;;;;;;34.05;10.10;;;17.30;99.90;;;;;;5067899;28;20025;-80
2022/10/10 02:34:45;;;;;;;38.55;11.10;;;17.30;99.90;;;;;;5065392;28;20039;-81
2022/10/10 02:37:13;;;;;;;35.53;10.40;;;17.30;99.90;;;;;;5065136;28;20009;-81
2022/10/10 02:39:55;;;;;;;43.30;11.25;;;17.30;99.90;;;;;;5063173;28;20228;-80
2022/10/10 02:42:23;;;;;;;36.03;10.70;;;17.30;99.90;;;;;;5062124;28;20032;-81
2022/10/10 02:44:50;;;;;;;29.38;9.80;;;17.30;99.90;;;;;;5061916;28;20533;-81
2022/10/10 02:47:16;;;;;;;37.83;11.60;;;17.30;99.90;;;;;;5073970;28;20088;-80
2022/10/10 02:49:42;;;;;;;32.83;9.95;;;17.30;99.90;;;;;;5066843;28;20036;-80
2022/10/10 02:52:08;;;;;;;27.33;10.75;;;17.30;99.90;;;;;;5070823;28;20021;-80
2022/10/10 02:54:33;;;;;;;32.38;9.93;;;17.30;99.90;;;;;;5065524;28;20036;-80
2022/10/10 02:56:59;;;;;;;28.52;9.73;;;17.30;99.90;;;;;;5067468;28;20021;-80
2022/10/10 02:59:25;;;;;;;31.15;9.40;;;17.30;99.90;;;;;;5064947;28;20031;-80
2022/10/10 03:01:50;;;;;;;34.60;10.23;;;17.30;99.90;;;;;;5064105;28;20035;-80
2022/10/10 03:04:16;;;;;;;33.10;10.10;;;17.30;99.90;;;;;;5064183;28;20362;-81
2022/10/10 03:06:42;;;;;;;34.58;10.68;;;17.30;99.90;;;;;;5062371;28;20030;-80
2022/10/10 03:09:08;;;;;;;32.33;11.07;;;17.30;99.90;;;;;;5061975;28;20029;-80
2022/10/10 03:11:33;;;;;;;26.17;9.30;;;17.30;99.90;;;;;;5067817;28;20328;-80
2022/10/10 03:13:59;;;;;;;35.30;9.57;;;17.30;99.90;;;;;;5068927;28;20033;-80
2022/10/10 03:16:24;;;;;;;32.47;9.63;;;17.30;99.90;;;;;;5068739;28;20101;-81
2022/10/10 03:18:51;;;;;;;30.30;9.70;;;17.30;99.90;;;;;;5066086;28;20029;-80
2022/10/10 03:21:17;;;;;;;24.77;8.80;;;17.30;99.90;;;;;;5070573;28;20021;-80
2022/10/10 03:23:42;;;;;;;27.20;8.57;;;17.30;99.90;;;;;;5080362;28;20028;-81
2022/10/10 03:26:08;;;;;;;32.50;9.45;;;17.30;99.90;;;;;;5071115;28;20332;-81
2022/10/10 03:28:36;;;;;;;27.50;8.55;;;17.30;99.90;;;;;;5073654;28;20200;-81
2022/10/10 03:31:01;;;;;;;26.38;8.88;;;17.30;99.90;;;;;;5069006;28;20220;-80
2022/10/10 03:33:27;;;;;;;30.58;9.35;;;17.30;99.90;;;;;;5071207;28;20037;-80
2022/10/10 03:35:53;;;;;;;27.20;8.85;;;17.30;99.90;;;;;;5067627;28;20041;-80
2022/10/10 03:38:18;;;;;;;29.58;8.45;;;17.30;99.90;;;;;;5073982;28;20024;-81
2022/10/10 03:40:44;;;;;;;28.33;9.57;;;17.20;99.90;;;;;;5066163;28;20019;-81
2022/10/10 03:43:12;;;;;;;24.25;8.77;;;17.20;99.90;;;;;;5065883;28;20040;-80
2022/10/10 03:45:40;;;;;;;30.50;8.60;;;17.20;99.90;;;;;;5071285;28;20025;-80
2022/10/10 03:48:06;;;;;;;29.92;8.93;;;17.20;99.90;;;;;;5070915;28;20088;-80
2022/10/10 03:50:31;;;;;;;28.60;9.57;;;17.20;99.90;;;;;;5072964;28;20028;-80
2022/10/10 03:52:57;;;;;;;31.67;10.20;;;17.30;99.90;;;;;;5067420;28;20196;-80
2022/10/10 03:55:22;;;;;;;31.08;9.60;;;17.20;99.90;;;;;;5071009;28;20309;-81
2022/10/10 03:57:48;;;;;;;33.10;9.77;;;17.20;99.90;;;;;;5068203;28;20024;-80
2022/10/10 04:00:14;;;;;;;31.10;10.38;;;17.30;99.90;;;;;;5068340;28;20309;-81
2022/10/10 04:02:39;;;;;;;34.40;9.77;;;17.30;99.90;;;;;;5067293;28;20005;-80
2022/10/10 04:05:05;;;;;;;27.15;9.93;;;17.20;99.90;;;;;;5065592;28;20025;-81
2022/10/10 04:07:31;;;;;;;32.92;10.65;;;17.20;99.90;;;;;;5065398;28;20095;-80
2022/10/10 04:09:57;;;;;;;32.67;10.45;;;17.20;99.90;;;;;;5075064;28;20028;-80
2022/10/10 04:12:22;;;;;;;27.48;10.77;;;17.10;99.90;;;;;;5076123;28;20039;-80
2022/10/10 04:14:48;;;;;;;35.22;11.60;;;17.10;99.90;;;;;;5074290;28;20320;-80
2022/10/10 04:17:14;;;;;;;25.88;11.18;;;17.10;99.90;;;;;;5072996;28;20036;-80
2022/10/10 04:19:40;;;;;;;28.52;12.48;;;17.10;99.90;;;;;;5071523;28;20321;-80
2022/10/10 04:22:06;;;;;;;25.42;10.82;;;17.10;99.90;;;;;;5076377;28;20086;-80
2022/10/10 04:24:31;;;;;;;25.55;11.40;;;17.10;99.90;;;;;;5080218;28;20070;-80
2022/10/10 04:26:57;;;;;;;32.28;12.00;;;17.10;99.90;;;;;;5071835;28;20032;-81
2022/10/10 04:29:23;;;;;;;28.10;12.85;;;17.10;99.90;;;;;;5067725;28;20315;-80
2022/10/10 04:31:48;;;;;;;28.67;13.05;;;17.00;99.90;;;;;;5070743;28;20055;-80
2022/10/10 04:34:14;;;;;;;29.80;13.30;;;16.90;99.90;;;;;;5064909;28;20380;-80
2022/10/10 04:36:40;;;;;;;31.40;14.07;;;16.80;99.90;;;;;;5067688;28;20066;-80
2022/10/10 04:39:06;;;;;;;39.70;13.95;;;16.80;99.90;;;;;;5064920;28;20021;-80
2022/10/10 04:41:31;;;;;;;39.00;14.40;;;16.90;99.90;;;;;;5065441;28;20209;-80
2022/10/10 04:43:57;;;;;;;29.35;12.90;;;16.90;99.90;;;;;;5063852;28;20021;-80
2022/10/10 04:46:23;;;;;;;34.28;14.05;;;16.90;99.90;;;;;;5070186;28;20035;-80
2022/10/10 04:48:48;;;;;;;30.05;13.10;;;16.90;99.90;;;;;;5074712;28;20059;-80
2022/10/10 04:51:14;;;;;;;31.83;12.00;;;16.90;99.90;;;;;;5068578;28;20036;-80
2022/10/10 04:53:40;;;;;;;27.67;13.57;;;17.00;99.90;;;;;;5071156;28;20016;-81
2022/10/10 04:56:05;;;;;;;30.60;12.63;;;17.00;99.90;;;;;;5067538;28;20124;-80
2022/10/10 04:58:31;;;;;;;29.50;12.80;;;17.00;99.90;;;;;;5066237;28;20112;-80
2022/10/10 05:00:57;;;;;;;32.70;13.05;;;17.00;99.90;;;;;;5062952;28;20041;-81
2022/10/10 05:03:23;;;;;;;35.55;13.75;;;17.00;99.90;;;;;;5073170;28;20021;-81
2022/10/10 05:05:49;;;;;;;32.58;13.38;;;17.00;99.90;;;;;;5078093;28;20073;-81
2022/10/10 05:08:15;;;;;;;28.73;12.35;;;17.00;99.90;;;;;;5082069;28;20084;-81
2022/10/10 05:10:41;;;;;;;26.92;12.43;;;17.10;99.90;;;;;;5075039;28;20055;-81
2022/10/10 05:13:09;;;;;;;27.45;12.23;;;17.10;99.90;;;;;;5070434;28;20555;-81
2022/10/10 05:15:36;;;;;;;30.77;11.73;;;17.10;99.90;;;;;;5070448;28;20028;-81
2022/10/10 05:18:02;;;;;;;32.45;13.23;;;17.10;99.90;;;;;;5070727;28;20088;-81
2022/10/10 05:20:27;;;;;;;28.67;12.05;;;17.10;99.90;;;;;;5070777;28;20042;-81
2022/10/10 05:22:53;;;;;;;32.00;11.90;;;17.10;99.90;;;;;;5069229;28;20020;-81
2022/10/10 05:25:19;;;;;;;32.47;14.48;;;17.10;99.90;;;;;;5070654;28;20021;-81
2022/10/10 05:27:44;;;;;;;31.48;12.70;;;17.10;99.90;;;;;;5070178;28;20036;-81
2022/10/10 05:30:11;;;;;;;29.55;13.43;;;17.10;99.90;;;;;;5070632;28;20029;-81
2022/10/10 05:32:36;;;;;;;29.98;12.45;;;17.10;99.90;;;;;;5070192;28;20037;-81
2022/10/10 05:35:03;;;;;;;28.15;12.80;;;17.10;99.90;;;;;;5070179;28;20467;-80
2022/10/10 05:37:29;;;;;;;26.70;12.02;;;17.10;99.90;;;;;;5067782;28;20016;-80
2022/10/10 05:39:55;;;;;;;31.17;11.93;;;17.10;99.90;;;;;;5072398;28;20032;-80
2022/10/10 05:42:21;;;;;;;36.78;12.52;;;17.10;99.90;;;;;;5064883;28;20401;-80
2022/10/10 05:44:46;;;;;;;36.85;13.35;;;17.10;99.90;;;;;;5057287;28;20029;-80
2022/10/10 05:47:12;;;;;;;27.23;12.13;;;17.00;99.90;;;;;;5052877;28;20021;-80
2022/10/10 05:49:37;;;;;;;28.90;12.18;;;17.00;99.90;;;;;;5052643;28;20120;-80
2022/10/10 05:52:03;;;;;;;39.65;13.60;;;17.10;99.90;;;;;;5057181;28;20032;-81
2022/10/10 05:54:29;;;;;;;33.30;13.93;;;17.10;99.90;;;;;;5058074;28;20048;-80
2022/10/10 05:56:54;;;;;;;34.58;13.63;;;17.10;99.90;;;;;;5061635;28;20025;-81
2022/10/10 05:59:20;;;;;;;33.70;13.60;;;17.10;99.90;;;;;;5057858;28;20021;-80
2022/10/10 06:01:45;;;;;;;28.05;13.13;;;17.10;99.90;;;;;;5061210;28;20346;-80
2022/10/10 06:04:11;;;;;;;28.80;12.35;;;17.10;99.90;;;;;;5061259;28;20032;-80
2022/10/10 06:06:37;;;;;;;27.80;13.20;;;17.10;99.90;;;;;;5054808;28;20032;-80
2022/10/10 06:09:02;;;;;;;34.85;13.90;;;17.10;99.90;;;;;;5056010;28;20143;-80
2022/10/10 06:11:28;;;;;;;26.17;13.25;;;17.10;99.90;;;;;;5052568;28;20024;-80
2022/10/10 06:13:54;;;;;;;38.88;13.52;;;17.10;99.90;;;;;;5054452;28;20044;-80
2022/10/10 06:16:24;;;;;;;32.85;13.82;;;17.10;99.90;;;;;;5061340;28;20025;-80
2022/10/10 06:18:50;;;;;;;30.90;12.88;;;17.20;99.90;;;;;;5064311;28;20044;-80
2022/10/10 06:21:17;;;;;;;39.05;13.20;;;17.20;99.90;;;;;;5063958;28;20027;-80
2022/10/10 06:23:43;;;;;;;39.92;14.40;;;17.20;99.90;;;;;;5071921;28;20024;-80
2022/10/10 06:26:09;;;;;;;35.65;14.35;;;17.20;99.90;;;;;;5061403;28;20497;-80
2022/10/10 06:28:35;;;;;;;38.28;14.38;;;17.20;99.90;;;;;;5062370;28;20028;-80
2022/10/10 06:31:03;;;;;;;39.08;15.18;;;17.20;99.90;;;;;;5055078;28;20488;-80
2022/10/10 06:33:29;;;;;;;28.10;13.52;;;17.10;99.90;;;;;;5058307;28;20060;-80
2022/10/10 06:35:55;;;;;;;34.10;14.55;;;17.10;99.90;;;;;;5058712;28;20064;-82
2022/10/10 06:38:21;;;;;;;31.27;14.27;;;17.00;99.90;;;;;;5052801;28;20029;-82
2022/10/10 06:40:46;;;;;;;32.92;14.27;;;17.00;99.90;;;;;;5051416;28;20512;-80
2022/10/10 06:43:13;;;;;;;31.02;14.02;;;17.00;99.90;;;;;;5053277;28;20433;-80
2022/10/10 06:45:41;;;;;;;27.17;12.88;;;17.00;99.90;;;;;;5062240;28;20021;-80
2022/10/10 06:48:08;;;;;;;36.20;13.40;;;17.00;99.90;;;;;;5058724;28;20032;-81
2022/10/10 06:50:34;;;;;;;24.58;13.15;;;17.00;99.90;;;;;;5061824;28;20020;-80
2022/10/10 06:52:59;;;;;;;34.92;15.10;;;17.00;99.90;;;;;;5054407;28;20467;-82
2022/10/10 06:55:25;;;;;;;30.08;13.80;;;17.00;99.90;;;;;;5056514;28;20070;-84
2022/10/10 06:57:51;;;;;;;33.90;14.63;;;17.00;99.90;;;;;;5051453;28;20103;-81
2022/10/10 07:00:17;;;;;;;34.33;13.82;;;17.10;99.90;;;;;;5052786;28;20033;-82
2022/10/10 07:02:43;;;;;;;35.20;14.43;;;17.10;99.90;;;;;;5065970;28;20020;-82
2022/10/10 07:05:11;;;;;;;28.13;14.13;;;17.20;99.90;;;;;;5051249;28;20028;-81
2022/10/10 07:07:40;;;;;;;27.13;13.73;;;17.20;99.90;;;;;;5060435;28;20511;-82
2022/10/10 07:10:07;;;;;;;27.85;13.10;;;17.30;99.90;;;;;;5055938;28;20106;-81
2022/10/10 07:12:32;;;;;;;30.63;14.02;;;17.40;99.90;;;;;;5065547;28;20015;-82
2022/10/10 07:14:58;;;;;;;32.47;13.77;;;17.50;99.90;;;;;;5057972;28;20060;-81
2022/10/10 07:17:24;;;;;;;38.15;14.35;;;17.50;99.90;;;;;;5056557;28;20050;-81
2022/10/10 07:19:49;;;;;;;40.55;13.63;;;17.60;99.90;;;;;;5053562;28;20025;-82
2022/10/10 07:22:15;;;;;;;27.25;14.23;;;17.60;99.90;;;;;;5061016;28;20068;-82
2022/10/10 07:24:41;;;;;;;32.75;13.75;;;17.60;99.90;;;;;;5056280;28;20397;-83
2022/10/10 07:27:06;;;;;;;31.27;14.27;;;17.70;99.90;;;;;;5055697;28;20054;-81
2022/10/10 07:29:32;;;;;;;29.95;13.25;;;17.70;99.90;;;;;;5059604;28;20494;-82
2022/10/10 07:31:58;;;;;;;33.80;14.27;;;17.70;99.90;;;;;;5052982;28;20024;-82
2022/10/10 07:34:23;;;;;;;37.03;12.55;;;17.80;99.90;;;;;;5051301;28;20041;-82
2022/10/10 07:36:49;;;;;;;29.65;12.35;;;17.90;99.90;;;;;;5052299;28;20025;-82
2022/10/10 07:39:19;;;;;;;35.13;14.15;;;18.00;99.90;;;;;;5050172;28;20082;-82
2022/10/10 07:41:45;;;;;;;39.08;14.68;;;18.00;99.90;;;;;;5052539;28;20056;-82
2022/10/10 07:44:10;;;;;;;37.13;13.35;;;17.90;99.90;;;;;;5066390;28;20463;-82
2022/10/10 07:46:36;;;;;;;39.60;13.13;;;18.00;99.90;;;;;;5067417;28;20028;-82
2022/10/10 07:49:01;;;;;;;32.65;11.85;;;18.00;99.90;;;;;;5075841;28;20070;-82
2022/10/10 07:51:27;;;;;;;30.98;13.00;;;18.20;99.90;;;;;;5063037;28;20017;-82
2022/10/10 07:53:53;;;;;;;36.60;12.55;;;18.30;99.90;;;;;;5056253;28;20123;-82
2022/10/10 07:56:18;;;;;;;26.42;11.20;;;18.30;99.90;;;;;;5049949;28;20032;-82
2022/10/10 07:58:44;;;;;;;34.47;11.60;;;18.30;99.90;;;;;;5049601;28;20040;-82
2022/10/10 08:01:11;;;;;;;35.65;11.93;;;18.30;99.90;;;;;;5055708;28;20029;-82
2022/10/10 08:03:37;;;;;;;31.05;11.77;;;18.40;99.90;;;;;;5055738;28;20021;-82
2022/10/10 08:06:05;;;;;;;37.78;11.95;;;18.40;99.90;;;;;;5068260;28;20087;-82
2022/10/10 08:08:32;;;;;;;35.40;12.23;;;18.50;99.90;;;;;;5060036;28;20632;-82
2022/10/10 08:10:57;;;;;;;30.17;11.65;;;18.40;99.90;;;;;;5070360;28;20420;-82
2022/10/10 08:13:24;;;;;;;26.98;11.10;;;18.40;99.90;;;;;;5065053;28;20044;-82
2022/10/10 08:15:50;;;;;;;27.58;10.88;;;18.40;99.90;;;;;;5070329;28;20133;-80
2022/10/10 08:18:19;;;;;;;39.97;12.05;;;18.60;99.90;;;;;;5058454;28;20025;-83
2022/10/10 08:20:45;;;;;;;30.67;11.63;;;18.70;99.90;;;;;;5058592;28;20104;-79
2022/10/10 08:23:10;;;;;;;36.38;11.05;;;18.80;99.90;;;;;;5070362;28;20100;-79
2022/10/10 08:25:36;;;;;;;31.33;11.20;;;18.80;99.90;;;;;;5058040;28;20330;-79
2022/10/10 08:28:02;;;;;;;25.35;10.63;;;18.90;99.90;;;;;;5057898;28;20035;-80
2022/10/10 08:30:28;;;;;;;32.65;10.70;;;19.10;99.90;;;;;;5056110;28;20486;-79
2022/10/10 08:32:53;;;;;;;38.08;10.23;;;19.30;99.90;;;;;;5063768;28;20136;-79
2022/10/10 08:35:19;;;;;;;36.60;10.90;;;19.30;99.90;;;;;;5066710;28;20041;-79
2022/10/10 08:37:45;;;;;;;23.80;9.75;;;19.30;99.90;;;;;;5058671;28;20107;-79
2022/10/10 08:40:18;;;;;;;34.28;10.30;;;19.40;99.90;;;;;;5064257;28;20036;-79
2022/10/10 08:42:49;;;;;;;29.25;10.32;;;19.60;99.90;;;;;;5064551;28;20128;-79
2022/10/10 08:45:19;;;;;;;24.75;9.73;;;19.50;99.90;;;;;;5066302;28;20025;-79
2022/10/10 08:47:59;;;;;;;36.08;9.65;;;19.60;99.90;;;;;;5058644;28;20040;-79
2022/10/10 08:50:31;;;;;;;31.70;9.10;;;19.70;99.90;;;;;;5055193;28;20103;-79
2022/10/10 08:53:02;;;;;;;66.75;12.05;;;19.80;99.90;;;;;;5070838;28;20078;-79
2022/10/10 08:55:36;;;;;;;71.68;13.63;;;19.80;99.90;;;;;;5062479;28;20040;-79
2022/10/10 08:58:17;;;;;;;107.50;16.60;;;19.90;99.90;;;;;;5053362;28;20052;-79
2022/10/10 09:01:04;;;;;;;55.80;11.35;;;19.90;99.90;;;;;;5069284;28;20028;-79
2022/10/10 09:03:44;;;;;;;31.75;10.05;;;20.00;99.90;;;;;;5060612;28;20032;-79
2022/10/10 09:06:18;;;;;;;43.05;8.75;;;20.00;99.90;;;;;;5075359;28;20095;-79
2022/10/10 09:08:56;;;;;;;;;;;20.00;99.90;;;;;;5074928;28;20017;-79
2022/10/10 09:11:38;;;;;;;27.42;9.23;;;20.00;99.90;;;;;;5078162;28;19912;-79
2022/10/10 09:14:30;;;;;;;26.08;7.97;;;19.90;99.90;;;;;;5072322;28;20028;-79
2022/10/10 09:17:23;;;;;;;28.00;8.35;;;20.00;99.90;;;;;;5070954;28;20420;-79
2022/10/10 09:20:34;;;;;;;33.65;8.50;;;20.00;99.90;;;;;;5071077;28;20055;-81
2022/10/10 09:23:20;;;;;;;26.27;7.80;;;20.00;99.90;;;;;;5065089;28;20554;-80
2022/10/10 09:26:02;;;;;;;28.92;9.40;;;20.10;99.90;;;;;;5055356;28;20044;-80
2022/10/10 09:29:10;;;;;;;28.30;7.70;;;20.20;99.90;;;;;;5057399;28;20469;-81
2022/10/10 09:31:49;;;;;;;70.80;12.38;;;20.40;99.90;;;;;;5032383;28;20381;-80
2022/10/10 09:34:22;;;;;;;31.60;8.32;;;20.50;99.90;;;;;;5054574;28;20125;-81
2022/10/10 09:36:48;;;;;;;25.83;7.78;;;20.60;99.90;;;;;;5064726;28;20025;-82
2022/10/10 09:39:14;;;;;;;30.77;7.50;;;20.90;99.90;;;;;;5059149;28;20086;-82
2022/10/10 09:41:52;;;;;;;31.77;8.00;;;21.10;99.90;;;;;;5066870;28;20021;-82
2022/10/10 09:44:20;;;;;;;24.50;6.90;;;21.10;99.90;;;;;;5059903;28;20033;-81
2022/10/10 09:46:46;;;;;;;32.95;7.07;;;21.00;99.90;;;;;;5058177;28;20083;-82
2022/10/10 09:49:15;;;;;;;31.13;7.03;;;21.00;99.90;;;;;;5057448;28;20529;-82
2022/10/10 09:51:42;;;;;;;27.23;7.55;;;20.80;99.90;;;;;;5057970;28;20029;-82
2022/10/10 09:54:08;;;;;;;39.85;8.85;;;20.70;99.90;;;;;;5056088;28;20025;-82
2022/10/10 09:56:44;;;;;;;26.27;7.15;;;20.60;99.90;;;;;;5053581;28;20108;-81
2022/10/10 09:59:44;;;;;;;31.27;7.55;;;20.50;99.90;;;;;;5063230;28;20108;-82
2022/10/10 10:02:19;;;;;;;36.95;8.18;;;20.30;99.90;;;;;;5051362;28;20021;-82
2022/10/10 10:04:46;;;;;;;25.88;6.70;;;20.40;99.90;;;;;;5060134;28;20389;-82
2022/10/10 10:07:32;;;;;;;28.27;7.22;;;20.50;99.90;;;;;;5061948;28;20017;-82
2022/10/10 10:09:59;;;;;;;27.67;6.60;;;20.50;99.90;;;;;;5061715;28;20035;-82
2022/10/10 10:12:36;;;;;;;32.22;7.00;;;20.60;99.90;;;;;;5063628;28;20021;-82
2022/10/10 10:15:05;;;;;;;26.13;7.13;;;20.70;99.90;;;;;;5060443;28;20241;-82
2022/10/10 10:17:32;;;;;;;30.58;6.35;;;20.90;99.90;;;;;;5057184;28;20482;-82
2022/10/10 10:19:57;;;;;;;30.88;7.13;;;21.00;99.90;;;;;;5052561;28;20440;-82
2022/10/10 10:22:32;;;;;;;27.25;6.10;;;21.00;99.90;;;;;;5061273;28;20061;-82
2022/10/10 10:24:59;;;;;;;21.00;5.68;;;21.10;99.90;;;;;;5063934;28;20107;-82
2022/10/10 10:27:27;;;;;;;35.35;6.00;;;21.50;99.90;;;;;;5060699;28;20016;-82
2022/10/10 10:29:57;;;;;;;31.48;7.50;;;21.70;99.90;;;;;;5058213;28;20082;-82
2022/10/10 10:32:25;;;;;;;29.00;5.47;;;21.80;99.90;;;;;;5050829;28;20094;-82
2022/10/10 10:35:08;;;;;;;31.60;6.45;;;22.10;99.90;;;;;;5052268;28;20241;-82
2022/10/10 10:38:00;;;;;;;21.25;7.38;;;22.10;99.90;;;;;;5055368;28;20032;-84
2022/10/10 10:40:39;;;;;;;34.50;7.13;;;22.20;99.90;;;;;;5055293;28;20020;-83
2022/10/10 10:43:13;;;;;;;28.40;6.90;;;22.30;99.90;;;;;;5055505;28;20032;-79
2022/10/10 10:45:44;;;;;;;33.83;6.40;;;22.30;99.90;;;;;;5054744;28;20017;-80
2022/10/10 10:48:45;;;;;;;29.55;6.70;;;22.30;99.90;;;;;;5063995;28;20385;-79
2022/10/10 10:51:32;;;;;;;22.45;5.88;;;22.20;99.90;;;;;;5056760;28;20111;-79
2022/10/10 10:54:25;;;;;;;27.30;6.50;;;22.00;99.90;;;;;;5052359;28;20473;-80
2022/10/10 10:57:22;;;;;;;28.42;6.05;;;22.00;99.90;;;;;;5062332;28;20033;-82
2022/10/10 11:00:01;;;;;;;25.55;6.38;;;22.00;99.90;;;;;;5058183;28;20668;-80
2022/10/10 11:02:37;;;;;;;25.55;6.35;;;22.00;99.90;;;;;;5052843;28;20021;-80
2022/10/10 11:05:21;;;;;;;31.73;6.78;;;22.30;99.90;;;;;;5056182;28;20508;-80
2022/10/10 11:08:09;;;;;;;26.25;5.72;;;22.40;99.90;;;;;;5055944;28;20025;-80
2022/10/10 11:10:53;;;;;;;27.30;6.10;;;22.60;99.90;;;;;;5057519;28;20017;-80
2022/10/10 11:13:45;;;;;;;27.13;6.80;;;22.60;99.90;;;;;;5057537;28;20020;-80
2022/10/10 11:16:15;;;;;;;32.75;8.55;;;22.40;99.90;;;;;;5053189;28;20286;-80
2022/10/10 11:19:10;;;;;;;32.15;8.20;;;22.20;99.90;;;;;;5055325;28;20013;-80
2022/10/10 11:21:51;;;;;;;21.25;6.43;;;22.00;99.90;;;;;;5051991;28;20393;-80
2022/10/10 11:24:40;;;;;;;24.73;6.50;;;21.70;99.90;;;;;;5054636;28;20029;-80
2022/10/10 11:27:18;;;;;;;25.30;6.50;;;21.50;99.90;;;;;;5063055;28;20423;-80
2022/10/10 11:29:59;;;;;;;25.92;6.68;;;21.30;99.90;;;;;;5054730;28;20141;-79
2022/10/10 11:33:01;;;;;;;26.75;8.18;;;21.20;99.90;;;;;;5054831;28;20083;-80
2022/10/10 11:35:36;;;;;;;35.13;12.55;;;21.30;99.90;;;;;;5062515;28;20028;-79
2022/10/10 11:38:10;;;;;;;34.67;10.13;;;21.30;99.90;;;;;;5050581;28;20017;-80
2022/10/10 11:40:52;;;;;;;30.42;9.52;;;21.30;99.90;;;;;;5056652;28;20035;-80
2022/10/10 11:43:29;;;;;;;35.67;9.00;;;21.40;99.90;;;;;;5061274;28;20511;-80
2022/10/10 11:46:06;;;;;;;28.65;8.65;;;21.50;99.90;;;;;;5060783;28;20040;-80
2022/10/10 11:48:56;;;;;;;35.55;10.20;;;21.70;99.90;;;;;;5061025;28;20032;-80
2022/10/10 11:51:36;;;;;;;31.48;8.85;;;21.90;99.90;;;;;;5056817;28;20064;-80
2022/10/10 11:54:12;;;;;;;28.88;6.47;;;21.80;99.90;;;;;;5066220;28;20057;-80
2022/10/10 11:56:42;;;;;;;31.35;6.03;;;22.20;99.90;;;;;;5055694;28;20032;-80
2022/10/10 11:59:35;;;;;;;26.65;5.13;;;22.30;99.90;;;;;;5066450;28;20070;-80
2022/10/10 12:02:13;;;;;;;23.38;4.90;;;22.30;99.90;;;;;;5054673;28;20116;-80
2022/10/10 12:04:39;;;;;;;21.80;5.57;;;22.50;99.90;;;;;;5052959;28;20025;-80
2022/10/10 12:07:13;;;;;;;22.45;4.72;;;22.70;99.90;;;;;;5060909;28;20032;-80
2022/10/10 12:09:45;;;;;;;21.30;6.07;;;22.80;99.90;;;;;;5061504;28;20082;-80
2022/10/10 12:12:31;;;;;;;26.58;5.03;;;23.00;99.90;;;;;;5059249;28;20024;-80
2022/10/10 12:15:00;;;;;;;21.92;5.05;;;23.10;99.90;;;;;;5056730;28;20029;-80
2022/10/10 12:17:37;;;;;;;23.90;5.30;;;23.10;99.90;;;;;;5060493;28;20370;-80
2022/10/10 12:20:15;;;;;;;23.38;5.20;;;23.30;99.90;;;;;;5055092;28;20032;-79
2022/10/10 12:22:41;;;;;;;21.35;5.28;;;23.60;99.90;;;;;;5068383;28;20035;-80
2022/10/10 12:25:10;;;;;;;25.42;4.90;;;24.00;99.90;;;;;;5061071;28;20389;-79
2022/10/10 12:28:00;;;;;;;23.67;4.72;;;23.90;99.90;;;;;;5056034;28;20573;-80
2022/10/10 12:30:25;;;;;;;17.40;4.32;;;23.70;99.90;;;;;;5065682;28;20033;-80
2022/10/10 12:32:54;;;;;;;29.05;4.20;;;23.80;99.90;;;;;;5054368;28;20041;-80
2022/10/10 12:35:25;;;;;;;20.60;4.43;;;24.40;99.90;;;;;;5065666;28;20033;-80
2022/10/10 12:38:09;;;;;;;25.50;4.18;;;25.10;99.90;;;;;;5052902;28;20400;-80
2022/10/10 12:41:08;;;;;;;18.48;4.57;;;25.20;99.90;;;;;;5065342;28;20063;-80
2022/10/10 12:43:41;;;;;;;17.80;4.05;;;25.30;99.90;;;;;;5062163;28;20028;-80
2022/10/10 12:46:28;;;;;;;15.73;4.10;;;25.40;99.90;;;;;;5058036;28;20025;-80
2022/10/10 12:49:05;;;;;;;19.33;4.43;;;25.50;99.90;;;;;;5061124;28;20442;-80
2022/10/10 12:51:34;;;;;;;19.60;4.35;;;25.60;99.90;;;;;;5056173;28;20178;-80